createdAt,value
2024-02-20T00:00:14.447Z,3.99
2024-02-20T00:03:03.113Z,3.98
2024-02-20T00:05:33.018Z,3.96
2024-02-20T00:08:04.489Z,3.95
2024-02-20T00:10:33.413Z,3.96
2024-02-20T00:13:03.774Z,3.96
2024-02-20T00:15:33.175Z,3.95
2024-02-20T00:18:02.098Z,3.93
2024-02-20T00:20:31.092Z,3.94
2024-02-20T00:22:59.847Z,3.95
2024-02-20T00:25:28.556Z,3.96
2024-02-20T00:27:57.299Z,3.99
2024-02-20T00:30:26.104Z,4.01
2024-02-20T00:32:54.791Z,4.01
2024-02-20T00:35:23.537Z,4.00
2024-02-20T00:37:52.650Z,3.97
2024-02-20T00:40:21.402Z,3.96
2024-02-20T00:42:50.190Z,3.95
2024-02-20T00:45:19.087Z,3.95
2024-02-20T00:47:48.049Z,3.96
2024-02-20T00:50:17.668Z,3.99
2024-02-20T00:52:46.669Z,4.03
2024-02-20T00:55:15.528Z,4.06
2024-02-20T00:57:44.280Z,4.09
2024-02-20T01:00:16.855Z,4.11
2024-02-20T01:02:48.962Z,4.12
2024-02-20T01:05:17.914Z,4.11
2024-02-20T01:11:23.157Z,4.13
2024-02-20T01:13:52.584Z,4.12
2024-02-20T01:16:21.679Z,4.15
2024-02-20T01:18:50.465Z,4.18
2024-02-20T01:21:19.212Z,4.18
2024-02-20T01:23:47.996Z,4.15
2024-02-20T01:26:16.632Z,4.14
2024-02-20T01:28:45.462Z,4.12
2024-02-20T01:31:20.549Z,4.10
2024-02-20T01:33:49.833Z,4.09
2024-02-20T01:36:20.783Z,4.06
2024-02-20T01:38:49.634Z,4.07
2024-02-20T01:41:20.239Z,4.10
2024-02-20T01:43:50.234Z,4.10
2024-02-20T01:46:23.166Z,4.07
2024-02-20T01:48:52.595Z,4.01
2024-02-20T01:51:24.617Z,3.94
2024-02-20T01:53:54.232Z,3.89
2024-02-20T01:56:26.048Z,3.85
2024-02-20T01:58:54.778Z,3.83
2024-02-20T02:01:26.591Z,3.83
2024-02-20T02:03:55.701Z,3.82
2024-02-20T02:06:31.783Z,3.80
2024-02-20T02:09:00.566Z,3.80
2024-02-20T02:11:29.514Z,3.77
2024-02-20T02:13:58.314Z,3.73
2024-02-20T02:16:27.054Z,3.71
2024-02-20T02:18:56.182Z,3.73
2024-02-20T02:21:25.674Z,3.72
2024-02-20T02:23:54.406Z,3.74
2024-02-20T02:26:23.165Z,3.76
2024-02-20T02:28:51.956Z,3.77
2024-02-20T02:31:21.469Z,3.78
2024-02-20T02:33:50.697Z,3.78
2024-02-20T02:36:19.373Z,3.79
2024-02-20T02:38:48.058Z,3.83
2024-02-20T02:41:16.770Z,3.86
2024-02-20T02:43:46.164Z,3.86
2024-02-20T02:46:14.860Z,3.87
2024-02-20T02:48:44.880Z,3.88
2024-02-20T02:51:13.769Z,3.88
2024-02-20T02:53:42.604Z,3.86
2024-02-20T02:56:13.373Z,3.82
2024-02-20T02:58:42.282Z,3.78
2024-02-20T03:01:11.613Z,3.72
2024-02-20T03:03:40.807Z,3.67
2024-02-20T03:06:10.896Z,3.66
2024-02-20T03:08:40.095Z,3.65
2024-02-20T03:11:11.307Z,3.61
2024-02-20T03:13:41.096Z,3.57
2024-02-20T03:16:11.228Z,3.53
2024-02-20T03:18:40.757Z,3.50
2024-02-20T03:21:09.525Z,3.48
2024-02-20T03:23:38.367Z,3.47
2024-02-20T03:26:08.347Z,3.46
2024-02-20T03:28:37.201Z,3.48
2024-02-20T03:31:09.250Z,3.49
2024-02-20T03:33:38.783Z,3.50
2024-02-20T03:36:08.799Z,3.50
2024-02-20T03:38:37.581Z,3.50
2024-02-20T03:41:06.367Z,3.51
2024-02-20T03:43:36.469Z,3.52
2024-02-20T03:46:06.458Z,3.53
2024-02-20T03:48:35.484Z,3.56
2024-02-20T03:51:06.342Z,3.64
2024-02-20T03:53:35.119Z,3.72
2024-02-20T03:56:04.332Z,3.78
2024-02-20T03:58:33.096Z,3.81
2024-02-20T04:01:01.795Z,3.80
2024-02-20T04:03:30.553Z,3.79
2024-02-20T04:05:59.467Z,3.78
2024-02-20T04:08:28.383Z,3.80
2024-02-20T04:10:58.286Z,3.84
2024-02-20T04:13:27.355Z,3.88
2024-02-20T04:15:56.161Z,3.88
2024-02-20T04:18:25.050Z,3.90
2024-02-20T04:20:53.820Z,3.91
2024-02-20T04:23:22.616Z,3.92
2024-02-20T04:25:51.433Z,3.96
2024-02-20T04:28:20.935Z,3.99
2024-02-20T04:30:49.672Z,4.02
2024-02-20T04:33:18.705Z,4.03
2024-02-20T04:35:48.070Z,4.02
2024-02-20T04:38:16.554Z,4.03
2024-02-20T04:40:45.184Z,4.02
2024-02-20T04:43:13.748Z,3.99
2024-02-20T04:45:42.583Z,3.95
2024-02-20T04:51:45.886Z,3.97
2024-02-20T04:54:16.466Z,3.95
2024-02-20T04:56:45.214Z,3.89
2024-02-20T04:59:13.883Z,3.84
2024-02-20T05:01:43.717Z,3.79
2024-02-20T05:04:12.712Z,3.74
2024-02-20T05:06:41.481Z,3.72
2024-02-20T05:09:11.254Z,3.72
2024-02-20T05:11:40.322Z,3.73
2024-02-20T05:14:09.105Z,3.76
2024-02-20T05:16:37.887Z,3.80
2024-02-20T05:19:06.919Z,3.82
2024-02-20T05:21:35.509Z,3.81
2024-02-20T05:27:35.318Z,3.89
2024-02-20T05:30:04.952Z,3.88
2024-02-20T05:32:33.995Z,3.90
2024-02-20T05:35:04.250Z,3.92
2024-02-20T05:37:33.154Z,3.91
2024-02-20T05:40:02.086Z,3.88
2024-02-20T05:42:31.126Z,3.82
2024-02-20T05:44:59.742Z,3.78
2024-02-20T05:47:28.438Z,3.78
2024-02-20T05:49:57.324Z,3.80
2024-02-20T05:52:26.212Z,3.83
2024-02-20T05:54:55.694Z,3.88
2024-02-20T05:57:24.465Z,3.90
2024-02-20T05:59:56.202Z,3.88
2024-02-20T06:02:25.014Z,3.87
2024-02-20T06:04:53.799Z,3.89
2024-02-20T06:07:26.406Z,3.92
2024-02-20T06:09:55.545Z,3.96
2024-02-20T06:12:24.234Z,3.97
2024-02-20T06:14:52.965Z,3.96
2024-02-20T06:17:21.661Z,3.96
2024-02-20T06:19:50.408Z,3.92
2024-02-20T06:22:19.100Z,3.95
2024-02-20T06:24:47.767Z,3.98
2024-02-20T06:27:16.486Z,3.96
2024-02-20T06:29:45.216Z,3.94
2024-02-20T06:32:13.982Z,3.92
2024-02-20T06:34:42.841Z,3.94
2024-02-20T06:37:11.722Z,3.99
2024-02-20T06:39:40.573Z,4.04
2024-02-20T06:42:09.246Z,4.08
2024-02-20T06:44:38.344Z,4.10
2024-02-20T06:47:06.908Z,4.12
2024-02-20T06:49:35.693Z,4.15
2024-02-20T06:52:04.804Z,4.18
2024-02-20T06:54:33.424Z,4.18
2024-02-20T06:57:02.132Z,4.18
2024-02-20T06:59:30.921Z,4.18
2024-02-20T07:02:02.066Z,4.14
2024-02-20T07:04:30.789Z,4.08
2024-02-20T07:06:59.689Z,4.05
2024-02-20T07:09:28.406Z,4.05
2024-02-20T07:11:57.166Z,4.06
2024-02-20T07:14:25.930Z,4.08
2024-02-20T07:17:01.934Z,4.11
2024-02-20T07:19:30.743Z,4.13
2024-02-20T07:22:00.217Z,4.13
2024-02-20T07:24:29.464Z,4.10
2024-02-20T07:26:58.128Z,4.08
2024-02-20T07:29:26.853Z,4.10
2024-02-20T07:31:56.953Z,4.14
2024-02-20T07:34:26.041Z,4.21
2024-02-20T07:36:55.570Z,4.21
2024-02-20T07:39:24.444Z,4.25
2024-02-20T07:41:53.149Z,4.25
2024-02-20T07:44:21.798Z,4.27
2024-02-20T07:46:50.640Z,4.30
2024-02-20T07:49:19.543Z,4.35
2024-02-20T07:51:49.538Z,4.37
2024-02-20T07:54:19.086Z,4.44
2024-02-20T07:56:48.980Z,4.50
2024-02-20T07:59:17.733Z,4.57
2024-02-20T08:01:54.334Z,4.62
2024-02-20T08:04:24.376Z,4.65
2024-02-20T08:06:53.353Z,4.66
2024-02-20T08:09:22.931Z,4.69
2024-02-20T08:11:52.362Z,4.73
2024-02-20T08:14:21.050Z,4.82
2024-02-20T08:16:50.629Z,4.91
2024-02-20T08:19:19.873Z,4.98
2024-02-20T08:21:48.894Z,5.00
2024-02-20T08:24:17.671Z,4.95
2024-02-20T08:27:11.137Z,4.97
2024-02-20T08:29:50.391Z,5.13
2024-02-20T08:32:45.114Z,5.30
2024-02-20T08:35:34.856Z,5.47
2024-02-20T08:38:23.830Z,5.58
2024-02-20T08:41:33.939Z,5.69
2024-02-20T08:44:03.116Z,5.80
2024-02-20T08:46:36.172Z,5.88
2024-02-20T08:49:05.310Z,5.93
2024-02-20T08:51:37.466Z,6.03
2024-02-20T08:54:06.162Z,6.12
2024-02-20T08:57:14.672Z,6.22
2024-02-20T08:59:43.245Z,6.30
2024-02-20T09:02:11.818Z,6.37
2024-02-20T09:04:40.485Z,6.48
2024-02-20T09:09:51.554Z,6.88
2024-02-20T09:12:20.941Z,7.01
2024-02-20T09:14:49.737Z,7.06
2024-02-20T09:17:57.607Z,7.18
2024-02-20T09:20:51.446Z,7.27
2024-02-20T09:23:41.188Z,7.47
2024-02-20T09:26:12.349Z,7.63
2024-02-20T09:28:41.192Z,7.75
2024-02-20T09:31:09.895Z,7.86
2024-02-20T09:33:39.172Z,7.90
2024-02-20T09:41:39.133Z,7.82
2024-02-20T09:44:09.608Z,7.84
2024-02-20T09:49:44.982Z,7.87
2024-02-20T09:52:27.457Z,7.76
2024-02-20T09:57:38.780Z,7.88
2024-02-20T10:00:08.140Z,7.91
2024-02-20T10:02:45.237Z,7.99
2024-02-20T10:05:18.905Z,8.08
2024-02-20T10:07:47.803Z,8.12
2024-02-20T10:15:46.687Z,8.18
2024-02-20T10:18:18.663Z,8.21
2024-02-20T10:20:47.510Z,8.29
2024-02-20T10:28:44.481Z,8.56
2024-02-20T10:44:50.442Z,8.82
2024-02-20T10:50:06.634Z,8.90
2024-02-20T10:55:27.799Z,9.07
2024-02-20T11:10:37.653Z,9.32
2024-02-20T11:16:16.572Z,9.33
2024-02-20T11:18:55.661Z,9.32
2024-02-20T11:21:52.133Z,9.37
2024-02-20T11:24:41.636Z,9.40
2024-02-20T11:27:14.412Z,9.46
2024-02-20T11:32:32.159Z,9.36
2024-02-20T11:35:00.985Z,9.35
2024-02-20T11:37:33.573Z,9.39
2024-02-20T11:40:04.922Z,9.43
2024-02-20T11:45:25.768Z,9.35
2024-02-20T11:51:02.313Z,9.24
2024-02-20T11:53:32.837Z,9.22
2024-02-20T11:59:03.442Z,9.17
2024-02-20T12:04:39.502Z,8.98
2024-02-20T12:07:49.273Z,8.96
2024-02-20T12:10:58.609Z,8.93
2024-02-20T12:13:33.494Z,8.92
2024-02-20T12:18:48.273Z,8.86
2024-02-20T12:21:49.277Z,8.84
2024-02-20T12:24:23.692Z,8.85
2024-02-20T12:27:02.496Z,8.91
2024-02-20T12:30:13.065Z,8.94
2024-02-20T12:32:47.983Z,8.96
2024-02-20T12:35:39.415Z,9.04
2024-02-20T12:43:42.222Z,9.19
2024-02-20T12:48:55.658Z,9.18
2024-02-20T12:54:09.094Z,9.13
2024-02-20T12:59:21.966Z,9.13
2024-02-20T13:04:35.349Z,9.14
2024-02-20T13:07:05.436Z,9.08
2024-02-20T13:09:34.051Z,9.07
2024-02-20T13:14:50.479Z,9.12
2024-02-20T13:17:18.972Z,9.14
2024-02-20T13:19:47.743Z,9.16
2024-02-20T13:27:41.366Z,8.96
2024-02-20T13:30:10.961Z,8.93
2024-02-20T13:35:22.544Z,8.93
2024-02-20T13:37:51.333Z,8.93
2024-02-20T13:40:21.378Z,8.90
2024-02-20T13:51:09.790Z,9.07
2024-02-20T13:53:38.353Z,9.13
2024-02-20T13:58:49.606Z,9.13
2024-02-20T14:01:18.388Z,9.16
2024-02-20T14:03:47.076Z,9.17
2024-02-20T14:06:15.723Z,9.18
2024-02-20T14:09:05.485Z,9.24
2024-02-20T14:12:07.968Z,9.35
2024-02-20T14:14:58.799Z,9.37
2024-02-20T14:17:32.147Z,9.38
2024-02-20T14:20:03.134Z,9.39
2024-02-20T14:22:32.229Z,9.43
2024-02-20T14:25:00.954Z,9.44
2024-02-20T14:27:29.948Z,9.44
2024-02-20T14:29:58.871Z,9.58
2024-02-20T14:32:27.765Z,9.66
2024-02-20T14:34:56.375Z,9.69
2024-02-20T14:37:25.070Z,9.76
2024-02-20T14:39:53.669Z,9.85
2024-02-20T14:42:22.443Z,9.85
2024-02-20T14:44:51.127Z,9.77
2024-02-20T14:47:39.622Z,9.64
2024-02-20T14:50:09.849Z,9.44
2024-02-20T14:52:40.252Z,9.27
2024-02-20T14:55:09.159Z,9.10
2024-02-20T14:57:59.139Z,9.00
2024-02-20T15:01:27.542Z,8.87
2024-02-20T15:03:57.910Z,8.71
2024-02-20T15:06:26.925Z,8.60
2024-02-20T15:08:55.834Z,8.52
2024-02-20T15:11:24.919Z,8.43
2024-02-20T15:13:54.529Z,8.36
2024-02-20T15:16:23.374Z,8.33
2024-02-20T15:18:52.198Z,8.31
2024-02-20T15:21:22.949Z,8.27
2024-02-20T15:23:51.515Z,8.20
2024-02-20T15:26:20.164Z,8.11
2024-02-20T15:28:50.710Z,8.04
2024-02-20T15:31:19.690Z,7.97
2024-02-20T15:33:48.625Z,7.92
2024-02-20T15:36:17.339Z,7.86
2024-02-20T15:38:45.981Z,7.77
2024-02-20T15:41:14.974Z,7.67
2024-02-20T15:43:43.691Z,7.59
2024-02-20T15:46:17.433Z,7.53
2024-02-20T15:48:51.123Z,7.47
2024-02-20T15:51:19.859Z,7.44
2024-02-20T15:53:48.425Z,7.43
2024-02-20T15:56:17.456Z,7.38
2024-02-20T15:58:46.169Z,7.33
2024-02-20T16:01:15.043Z,7.28
2024-02-20T16:03:43.915Z,7.25
2024-02-20T16:06:12.566Z,7.28
2024-02-20T16:08:41.276Z,7.23
2024-02-20T16:11:10.166Z,7.12
2024-02-20T16:13:39.236Z,7.11
2024-02-20T16:16:21.794Z,7.14
2024-02-20T16:19:05.755Z,7.04
2024-02-20T16:21:34.507Z,6.92
2024-02-20T16:24:03.813Z,6.80
2024-02-20T16:26:32.443Z,6.68
2024-02-20T16:29:01.148Z,6.65
2024-02-20T16:31:31.032Z,6.63
2024-02-20T16:33:59.832Z,6.59
2024-02-20T16:36:28.485Z,6.55
2024-02-20T16:38:57.186Z,6.46
2024-02-20T16:41:25.801Z,6.51
2024-02-20T16:43:54.680Z,6.58
2024-02-20T16:46:23.456Z,6.53
2024-02-20T16:48:52.218Z,6.46
2024-02-20T16:51:21.720Z,6.33
2024-02-20T16:53:50.599Z,6.23
2024-02-20T16:56:19.224Z,6.12
2024-02-20T16:58:47.951Z,5.97
2024-02-20T17:01:16.954Z,5.83
2024-02-20T17:03:46.482Z,5.68
2024-02-20T17:06:15.319Z,5.54
2024-02-20T17:08:44.135Z,5.39
2024-02-20T17:13:55.240Z,5.17
2024-02-20T17:16:24.109Z,5.08
2024-02-20T17:19:14.179Z,4.98
2024-02-20T17:22:02.585Z,4.86
2024-02-20T17:25:07.680Z,4.76
2024-02-20T17:30:58.388Z,4.61
2024-02-20T17:33:46.973Z,4.55
2024-02-20T17:36:31.689Z,4.48
2024-02-20T17:39:22.641Z,4.41
2024-02-20T17:41:58.942Z,4.35
2024-02-20T17:48:38.073Z,4.19
2024-02-20T17:51:07.648Z,4.12
2024-02-20T17:56:43.374Z,4.04
2024-02-20T17:59:33.870Z,4.01
2024-02-20T18:05:36.133Z,3.92
2024-02-20T18:08:27.375Z,3.87
2024-02-20T18:11:36.773Z,3.80
2024-02-20T18:14:33.486Z,3.75
2024-02-20T18:17:43.326Z,3.71
2024-02-20T18:23:16.178Z,3.65
2024-02-20T18:26:05.125Z,3.61
2024-02-20T18:28:34.578Z,3.60
2024-02-20T18:31:05.959Z,3.55
2024-02-20T18:36:32.608Z,3.48
2024-02-20T18:39:21.415Z,3.45
2024-02-20T18:42:29.946Z,3.41
2024-02-20T18:48:42.477Z,3.31
2024-02-20T18:51:31.133Z,3.29
2024-02-20T18:54:20.436Z,3.26
2024-02-20T18:57:14.808Z,3.21
2024-02-20T18:59:45.663Z,3.17
2024-02-20T19:02:54.798Z,3.15
2024-02-20T19:06:03.333Z,3.11
2024-02-20T19:08:35.901Z,3.12
2024-02-20T19:11:42.436Z,3.13
2024-02-20T19:14:13.313Z,3.13
2024-02-20T19:17:23.499Z,3.12
2024-02-20T19:20:15.907Z,3.07
2024-02-20T19:23:19.713Z,3.03
2024-02-20T19:26:29.635Z,2.96
2024-02-20T19:28:59.836Z,2.91
2024-02-20T19:31:49.065Z,2.88
2024-02-20T19:34:19.492Z,2.87
2024-02-20T19:37:00.558Z,2.85
2024-02-20T19:39:30.254Z,2.82
2024-02-20T19:42:20.167Z,2.76
2024-02-20T19:45:30.614Z,2.68
2024-02-20T19:48:00.862Z,2.62
2024-02-20T19:50:30.565Z,2.59
2024-02-20T19:52:59.464Z,2.56
2024-02-20T19:56:11.837Z,2.53
2024-02-20T19:58:40.604Z,2.48
2024-02-20T20:01:29.402Z,2.46
2024-02-20T20:04:24.751Z,2.41
2024-02-20T20:06:53.510Z,2.37
2024-02-20T20:09:44.122Z,2.33
2024-02-20T20:13:12.973Z,2.29
2024-02-20T20:16:03.341Z,2.24
2024-02-20T20:19:11.417Z,2.16
2024-02-20T20:21:51.166Z,2.10
2024-02-20T20:24:20.052Z,2.04
2024-02-20T20:27:29.348Z,2.01
2024-02-20T20:33:00.027Z,1.97
2024-02-20T20:36:11.683Z,1.97
2024-02-20T20:38:45.796Z,1.98
2024-02-20T20:41:36.962Z,1.97
2024-02-20T20:44:38.368Z,1.99
2024-02-20T20:50:42.018Z,1.99
2024-02-20T20:53:30.638Z,2.01
2024-02-20T20:55:59.400Z,2.05
2024-02-20T20:58:48.608Z,2.09
2024-02-20T21:01:37.697Z,2.09
2024-02-20T21:04:13.760Z,2.07
2024-02-20T21:06:43.783Z,2.04
2024-02-20T21:09:32.387Z,2.02
2024-02-20T21:12:22.179Z,2.01
2024-02-20T21:14:54.848Z,1.99
2024-02-20T21:21:00.904Z,2.05
2024-02-20T21:23:29.688Z,2.03
2024-02-20T21:26:20.389Z,2.03
2024-02-20T21:28:58.107Z,2.03
2024-02-20T21:31:52.120Z,2.05
2024-02-20T21:37:47.924Z,2.12
2024-02-20T21:43:00.493Z,2.15
2024-02-20T21:45:31.753Z,2.15
2024-02-20T21:48:03.173Z,2.13
2024-02-20T21:50:51.825Z,2.14
2024-02-20T21:56:42.770Z,2.18
2024-02-20T21:59:30.979Z,2.14
2024-02-20T22:07:48.521Z,2.15
2024-02-20T22:10:18.649Z,2.14
2024-02-20T22:12:55.583Z,2.11
2024-02-20T22:26:19.896Z,1.99
2024-02-20T22:28:49.068Z,1.95
2024-02-20T22:31:20.654Z,1.93
2024-02-20T22:33:49.659Z,1.90
2024-02-20T22:39:21.225Z,1.86
2024-02-20T22:42:13.030Z,1.85
2024-02-20T22:44:46.530Z,1.85
2024-02-20T22:47:39.011Z,1.83
2024-02-20T22:50:47.673Z,1.83
2024-02-20T22:53:47.329Z,1.84
2024-02-20T22:59:40.946Z,1.85
2024-02-20T23:02:29.661Z,1.85
2024-02-20T23:05:07.221Z,1.86
2024-02-20T23:07:36.321Z,1.85
2024-02-20T23:10:06.936Z,1.86
2024-02-20T23:15:38.094Z,1.88
2024-02-20T23:18:07.880Z,1.91
2024-02-20T23:21:24.056Z,1.92
2024-02-20T23:23:52.871Z,1.90
2024-02-20T23:26:22.431Z,1.89
2024-02-20T23:28:51.235Z,1.88
2024-02-20T23:31:40.116Z,1.85
2024-02-20T23:34:10.515Z,1.85
2024-02-20T23:36:40.041Z,1.87
2024-02-20T23:39:29.853Z,1.91
2024-02-20T23:42:19.410Z,1.91
2024-02-20T23:45:30.738Z,1.96
2024-02-20T23:48:19.451Z,1.99
2024-02-20T23:54:23.887Z,2.06
2024-02-20T23:59:34.863Z,2.05
